Time;durP1;ratioP1;P1;durP2;ratioP2;P2;SDS_P1;SDS_P2;PMS_P1;PMS_P2;Temp;Humidity;BMP_temperature;BMP_pressure;BME280_temperature;BME280_humidity;BME280_pressure;Samples;Min_cycle;Max_cycle;Signal;HPM_P1;HPM_P2
2022/01/22 00:01:12;;;;;;;38.83;22.77;;;4.60;99.90;;;5.87;100.00;102061.00;5056019;28;20025;-83
2022/01/22 00:03:38;;;;;;;39.90;22.73;;;4.60;99.90;;;5.79;100.00;102056.88;5056447;28;20064;-83
2022/01/22 00:06:06;;;;;;;38.03;23.92;;;4.60;99.90;;;5.79;100.00;102054.09;5057478;28;20076;-84
2022/01/22 00:08:32;;;;;;;36.60;23.52;;;4.60;99.90;;;5.78;100.00;102057.97;5056240;28;20115;-85
2022/01/22 00:10:58;;;;;;;39.33;23.65;;;4.60;99.90;;;5.73;100.00;102052.50;5056030;28;20029;-82
2022/01/22 00:16:11;;;;;;;30.48;20.85;;;4.60;99.90;;;5.76;100.00;102053.84;5056680;28;20392;-85
2022/01/22 00:18:37;;;;;;;36.92;20.98;;;4.60;99.90;;;5.73;100.00;102060.81;5039703;28;20029;-84
2022/01/22 00:21:03;;;;;;;33.95;22.38;;;4.60;99.90;;;5.84;100.00;102053.22;5039946;28;20036;-84
2022/01/22 00:23:30;;;;;;;33.35;21.15;;;4.60;99.90;;;5.85;100.00;102054.88;5038835;28;20033;-85
2022/01/22 00:25:56;;;;;;;33.50;22.80;;;4.60;99.90;;;5.90;100.00;102062.34;5052901;28;20021;-85
2022/01/22 00:28:22;;;;;;;33.03;21.52;;;4.60;99.90;;;5.85;100.00;102052.09;5035734;28;20033;-84
2022/01/22 00:30:54;;;;;;;36.00;23.00;;;4.70;99.90;;;5.88;100.00;102048.75;5035872;28;20029;-83
2022/01/22 00:33:20;;;;;;;40.88;22.83;;;4.60;99.90;;;5.83;100.00;102052.41;5036177;28;20036;-85
2022/01/22 00:35:55;;;;;;;36.90;22.52;;;4.60;99.90;;;5.76;100.00;102048.31;5035939;28;20511;-84
2022/01/22 00:38:24;;;;;;;33.75;21.70;;;4.60;99.90;;;5.84;100.00;102045.72;5053263;28;20029;-85
2022/01/22 00:40:51;;;;;;;37.65;23.13;;;4.60;99.90;;;5.89;100.00;102049.59;5052909;28;20040;-84
2022/01/22 00:43:20;;;;;;;40.72;23.80;;;4.60;99.90;;;5.80;100.00;102044.66;5035854;28;20029;-83
2022/01/22 00:45:46;;;;;;;37.65;24.40;;;4.60;99.90;;;5.83;100.00;102049.63;5052721;28;20473;-84
2022/01/22 00:48:12;;;;;;;43.75;23.98;;;4.60;99.90;;;5.88;100.00;102046.00;5052355;28;20128;-84
2022/01/22 00:50:38;;;;;;;38.60;23.55;;;4.60;99.90;;;5.90;100.00;102037.41;5053555;28;20124;-84
2022/01/22 00:53:10;;;;;;;44.42;25.20;;;4.60;99.90;;;5.86;100.00;102041.88;5052014;28;20060;-85
2022/01/22 00:55:39;;;;;;;50.42;30.85;;;4.60;99.90;;;5.89;100.00;102039.34;5053612;28;20029;-82
2022/01/22 00:58:06;;;;;;;38.05;22.70;;;4.60;99.90;;;5.70;100.00;102055.03;5036007;28;20563;-84
2022/01/22 01:00:35;;;;;;;39.20;23.70;;;4.60;99.90;;;5.86;100.00;102048.25;5035990;28;20029;-84
2022/01/22 01:03:01;;;;;;;40.35;23.98;;;4.60;99.90;;;5.84;100.00;102050.47;5037508;28;20025;-83
2022/01/22 01:05:27;;;;;;;38.85;23.30;;;4.60;99.90;;;5.91;100.00;102039.84;5052825;28;20029;-83
2022/01/22 01:08:01;;;;;;;51.13;25.42;;;4.60;99.90;;;5.84;100.00;102048.50;5052952;28;20033;-83
2022/01/22 01:10:27;;;;;;;42.95;22.20;;;4.60;99.90;;;5.89;100.00;102044.06;5067438;28;20096;-87
2022/01/22 01:13:00;;;;;;;38.90;24.58;;;4.60;99.90;;;5.88;100.00;102036.84;5054382;28;20033;-84
2022/01/22 01:15:41;;;;;;;40.67;23.27;;;4.60;99.90;;;5.85;100.00;102035.44;5054619;28;20025;-85
2022/01/22 01:34:32;;;;;;;44.78;24.55;;;4.60;99.90;;;5.87;100.00;102037.97;5070238;28;20113;-87
2022/01/22 01:37:00;;;;;;;42.10;24.08;;;4.60;99.90;;;5.82;100.00;102033.28;5072770;28;20021;-84
2022/01/22 01:39:31;;;;;;;44.10;23.27;;;4.60;99.90;;;5.76;100.00;102037.22;5076276;28;20070;-82
2022/01/22 01:42:09;;;;;;;37.40;23.48;;;4.60;99.90;;;5.85;100.00;102046.53;5056459;28;20063;-86
2022/01/22 01:44:35;;;;;;;41.90;23.48;;;4.60;99.90;;;5.86;100.00;102039.09;5055345;28;20033;-83
2022/01/22 01:47:07;;;;;;;41.30;24.23;;;4.60;99.90;;;5.89;100.00;102046.81;5056095;28;20035;-83
2022/01/22 01:49:34;;;;;;;41.42;23.55;;;4.60;99.90;;;5.78;100.00;102043.28;5039457;28;20415;-83
2022/01/22 01:52:03;;;;;;;41.42;23.85;;;4.60;99.90;;;5.75;100.00;102047.47;5056501;28;20381;-84
2022/01/22 01:54:37;;;;;;;40.55;24.80;;;4.60;99.90;;;5.78;100.00;102041.34;5055525;28;20017;-85
2022/01/22 01:59:53;;;;;;;42.53;24.38;;;4.60;99.90;;;5.82;100.00;102047.13;5056789;28;20036;-84
2022/01/22 02:02:30;;;;;;;45.75;25.80;;;4.60;99.90;;;5.86;100.00;102056.56;5039147;28;20041;-84
2022/01/22 02:05:03;;;;;;;40.72;24.88;;;4.50;99.90;;;5.86;100.00;102056.56;5055896;28;20036;-86
2022/01/22 02:07:29;;;;;;;42.60;25.77;;;4.60;99.90;;;5.84;100.00;102053.22;5038934;28;20040;-87
2022/01/22 02:09:58;;;;;;;39.63;24.77;;;4.50;99.90;;;5.85;100.00;102060.41;5055469;28;20017;-84
2022/01/22 02:26:08;;;;;;;44.50;26.15;;;4.50;99.90;;;5.78;100.00;102046.88;5056724;28;20040;-85
2022/01/22 02:28:34;;;;;;;44.05;26.02;;;4.50;99.90;;;5.80;100.00;102050.22;5039721;28;20488;-86
2022/01/22 02:34:45;;;;;;;40.63;26.63;;;4.50;99.90;;;5.75;100.00;102041.94;5024051;28;20047;-86
2022/01/22 02:37:01;;;;;;;51.75;27.60;;;4.50;99.90;;;5.67;100.00;102037.03;5048370;28;20037;-84
2022/01/22 02:39:44;;;;;;;48.17;28.70;;;4.50;99.90;;;5.68;100.00;102041.44;5053387;28;20061;-83
2022/01/22 02:42:10;;;;;;;46.45;27.83;;;4.50;99.90;;;5.72;100.00;102031.44;5054374;28;20117;-84
2022/01/22 02:44:44;;;;;;;46.80;27.88;;;4.60;99.90;;;5.74;100.00;102022.84;5038509;28;20052;-83
2022/01/22 02:47:12;;;;;;;44.33;26.67;;;4.60;99.90;;;5.73;100.00;102024.78;5054573;28;20132;-81
2022/01/22 02:49:39;;;;;;;44.92;27.02;;;4.50;99.90;;;5.75;100.00;102030.00;5054830;28;20033;-85
2022/01/22 02:52:08;;;;;;;46.20;27.02;;;4.50;99.90;;;5.73;100.00;102035.03;5054235;28;20038;-82
2022/01/22 02:54:39;;;;;;;50.65;29.25;;;4.60;99.90;;;5.72;100.00;102023.09;5038138;28;20079;-85
2022/01/22 02:57:08;;;;;;;47.60;28.05;;;4.50;99.90;;;5.78;100.00;102027.47;5054335;28;20029;-85
2022/01/22 02:59:36;;;;;;;44.20;26.70;;;4.50;99.90;;;5.74;100.00;102029.22;5054180;28;20064;-82
2022/01/22 03:02:08;;;;;;;48.88;28.42;;;4.50;99.90;;;5.79;100.00;102036.63;5053414;28;20488;-83
2022/01/22 03:04:34;;;;;;;43.80;28.08;;;4.60;99.90;;;5.86;100.00;102036.31;5054103;28;20178;-79
2022/01/22 03:07:01;;;;;;;49.13;28.98;;;4.60;99.90;;;5.77;100.00;102034.16;5053378;28;20025;-84
2022/01/22 03:09:41;;;;;;;50.63;28.30;;;4.60;99.90;;;5.67;100.00;102034.25;5053498;28;20143;-83
2022/01/22 03:20:06;;;;;;;50.47;27.70;;;4.60;99.90;;;5.83;100.00;102038.53;5055127;28;20036;-85
2022/01/22 03:27:49;;;;;;;48.85;28.92;;;4.60;99.90;;;5.82;100.00;102049.91;5054026;28;20047;-83
2022/01/22 03:30:19;;;;;;;49.20;28.73;;;4.60;99.90;;;5.92;100.00;102049.84;5053867;28;20112;-84
2022/01/22 03:32:49;;;;;;;56.38;32.55;;;4.60;99.90;;;5.95;100.00;102048.41;5052409;28;20047;-84
2022/01/22 03:37:53;;;;;;;49.95;29.33;;;4.60;99.90;;;5.95;100.00;102052.03;5055125;28;20120;-85
2022/01/22 03:40:29;;;;;;;50.88;29.52;;;4.60;99.90;;;5.91;100.00;102048.19;5054129;28;20036;-85
2022/01/22 03:42:56;;;;;;;52.35;30.92;;;4.60;99.90;;;5.97;100.00;102043.44;5053320;28;20047;-84
2022/01/22 03:45:24;;;;;;;48.30;27.90;;;4.70;99.90;;;5.94;100.00;102053.13;5056286;28;20025;-88
2022/01/22 03:47:51;;;;;;;43.63;26.50;;;4.60;99.90;;;5.91;100.00;102053.72;5054495;28;20431;-84
2022/01/22 03:50:21;;;;;;;44.95;25.60;;;4.70;99.90;;;5.98;100.00;102045.06;5055026;28;20082;-85
2022/01/22 03:52:50;;;;;;;44.88;27.42;;;4.70;99.90;;;5.99;100.00;102044.78;5058819;28;20025;-84
2022/01/22 03:55:34;;;;;;;48.72;26.63;;;4.70;99.90;;;6.00;100.00;102045.59;5042315;28;20116;-86
2022/01/22 03:58:04;;;;;;;49.60;28.27;;;4.70;99.90;;;6.01;100.00;102050.00;5057398;28;20029;-85
2022/01/22 04:00:31;;;;;;;44.65;26.20;;;4.70;99.90;;;5.91;100.00;102039.84;5040392;28;20021;-85
2022/01/22 04:05:23;;;;;;;44.35;27.38;;;4.70;99.90;;;5.97;100.00;102047.03;5059080;28;20029;-85
2022/01/22 04:08:13;;;;;;;64.50;32.95;;;4.70;99.90;;;5.99;100.00;102053.09;5056112;28;20039;-85
2022/01/22 04:10:41;;;;;;;45.88;26.70;;;4.70;99.90;;;6.09;100.00;102057.72;5040367;28;20119;-83
2022/01/22 04:13:12;;;;;;;40.97;23.60;;;4.80;99.90;;;6.08;100.00;102058.81;5039619;28;20123;-86
2022/01/22 04:15:40;;;;;;;43.22;23.50;;;4.80;99.90;;;6.02;100.00;102054.44;5057246;28;20587;-86
2022/01/22 04:26:41;;;;;;;37.47;22.58;;;4.80;99.90;;;6.09;100.00;102063.25;5062632;28;20163;-86
2022/01/22 04:29:10;;;;;;;41.30;22.92;;;4.80;99.90;;;6.12;100.00;102060.72;5054979;28;20029;-87
2022/01/22 04:31:36;;;;;;;29.90;20.65;;;4.80;99.90;;;6.11;100.00;102064.59;5056045;28;20033;-86
2022/01/22 04:34:02;;;;;;;35.70;21.60;;;4.80;99.90;;;6.05;100.00;102062.19;5039417;28;20025;-87
2022/01/22 04:36:31;;;;;;;38.15;23.15;;;4.80;99.90;;;6.11;100.00;102064.59;5039566;28;20033;-88
2022/01/22 04:38:57;;;;;;;39.90;21.95;;;4.80;99.90;;;6.16;100.00;102070.13;5040321;28;20120;-87
2022/01/22 04:41:23;;;;;;;32.83;19.92;;;4.80;99.90;;;6.13;100.00;102072.66;5060275;28;20025;-84
2022/01/22 04:43:56;;;;;;;33.08;20.45;;;4.80;99.90;;;6.16;100.00;102069.28;5062946;28;20029;-87
2022/01/22 04:46:35;;;;;;;30.13;18.50;;;4.80;99.90;;;6.15;100.00;102071.22;5053438;28;20060;-89
2022/01/22 04:49:12;;;;;;;31.92;18.73;;;4.80;99.90;;;6.20;100.00;102071.16;5061711;28;20033;-89
2022/01/22 04:57:17;;;;;;;32.17;19.70;;;4.80;99.90;;;6.20;100.00;102068.38;5057454;28;20047;-84
2022/01/22 04:59:44;;;;;;;31.33;20.02;;;4.80;99.90;;;6.24;100.00;102072.25;5039383;28;20040;-84
2022/01/22 05:02:15;;;;;;;31.10;19.02;;;4.90;99.90;;;6.25;100.00;102068.34;5056265;28;20396;-86
2022/01/22 05:04:44;;;;;;;27.20;18.98;;;4.90;99.90;;;6.24;100.00;102065.84;5057557;28;20021;-86
2022/01/22 05:07:15;;;;;;;31.63;18.75;;;4.90;99.90;;;6.21;100.00;102067.28;5040177;28;20078;-84
2022/01/22 05:09:41;;;;;;;33.45;19.52;;;4.90;99.90;;;6.24;100.00;102063.91;5040321;28;20388;-86
2022/01/22 05:12:08;;;;;;;31.85;19.60;;;4.90;99.90;;;6.24;100.00;102060.31;5056695;28;20024;-85
2022/01/22 05:14:35;;;;;;;32.35;19.88;;;4.90;99.90;;;6.13;100.00;102064.34;5039822;28;20029;-83
2022/01/22 05:17:07;;;;;;;31.95;19.88;;;4.90;99.90;;;6.20;100.00;102057.28;5055967;28;20028;-82
2022/01/22 05:22:15;;;;;;;27.92;18.52;;;4.90;99.90;;;6.20;100.00;102056.47;5057269;28;20025;-85
2022/01/22 05:24:45;;;;;;;30.05;19.15;;;4.90;99.90;;;6.22;100.00;102060.63;5055673;28;20052;-84
2022/01/22 05:38:07;;;;;;;32.42;17.95;;;4.90;99.90;;;6.17;100.00;102066.22;5057406;28;20087;-83
2022/01/22 05:40:35;;;;;;;30.00;17.88;;;5.00;99.90;;;6.25;100.00;102068.34;5055563;28;20108;-83
2022/01/22 05:43:22;;;;;;;38.05;18.92;;;5.00;99.90;;;6.23;100.00;102076.13;5038333;28;20024;-85
2022/01/22 05:45:53;;;;;;;30.67;19.55;;;5.00;99.90;;;6.21;100.00;102077.53;5053514;28;20028;-87
2022/01/22 05:48:19;;;;;;;31.75;18.83;;;5.00;99.90;;;6.30;100.00;102070.22;5070340;28;20050;-86
2022/01/22 05:50:56;;;;;;;31.17;18.58;;;5.00;99.90;;;6.29;100.00;102080.50;5074700;28;20036;-85
2022/01/22 06:01:10;;;;;;;32.47;18.33;;;5.00;99.90;;;6.38;100.00;102093.72;5057655;28;20094;-85
2022/01/22 06:03:36;;;;;;;36.50;20.50;;;5.10;99.90;;;6.32;100.00;102101.31;5039892;28;20054;-83
2022/01/22 06:06:03;;;;;;;32.50;19.73;;;5.10;99.90;;;6.42;100.00;102105.91;5056165;28;20024;-84
2022/01/22 06:08:31;;;;;;;35.42;19.30;;;5.10;99.90;;;6.38;100.00;102102.06;5057428;28;20495;-82
2022/01/22 06:11:06;;;;;;;31.00;17.52;;;5.10;99.90;;;6.33;100.00;102100.16;5040456;28;20028;-83
2022/01/22 06:13:43;;;;;;;28.05;17.83;;;5.00;99.90;;;6.38;100.00;102110.38;5056752;28;20209;-85
2022/01/22 06:16:27;;;;;;;35.28;18.33;;;5.10;99.90;;;6.31;100.00;102100.47;5055662;28;20033;-84
2022/01/22 06:18:57;;;;;;;31.60;17.92;;;5.10;99.90;;;6.30;100.00;102100.75;5054977;28;20047;-85
2022/01/22 06:21:26;;;;;;;34.28;18.27;;;5.20;99.90;;;6.41;100.00;102110.63;5055551;28;20032;-83
2022/01/22 06:23:52;;;;;;;34.40;18.55;;;5.10;99.90;;;6.44;100.00;102112.81;5055306;28;20115;-84
2022/01/22 06:26:19;;;;;;;30.02;17.05;;;5.20;99.90;;;6.43;100.00;102113.91;5051849;28;20056;-83
2022/01/22 06:28:49;;;;;;;30.67;18.27;;;5.20;99.90;;;6.30;100.00;102103.53;5036589;28;20083;-83
2022/01/22 06:31:18;;;;;;;32.70;17.23;;;5.10;99.90;;;6.41;100.00;102121.72;5052637;28;20029;-84
2022/01/22 06:33:44;;;;;;;28.48;17.20;;;5.20;99.90;;;6.40;100.00;102117.28;5036147;28;20037;-85
2022/01/22 06:36:13;;;;;;;31.75;17.65;;;5.10;99.90;;;6.41;100.00;102118.94;5035588;28;20068;-84
2022/01/22 06:38:40;;;;;;;29.77;16.85;;;5.10;99.90;;;6.38;100.00;102105.66;5051864;28;20034;-85
2022/01/22 06:43:54;;;;;;;28.67;17.58;;;5.10;99.90;;;6.41;100.00;102116.19;5037068;28;20447;-83
2022/01/22 06:46:20;;;;;;;32.58;17.33;;;5.10;99.90;;;6.45;100.00;102122.78;5035063;28;20029;-83
2022/01/22 06:48:46;;;;;;;31.35;17.63;;;5.10;99.90;;;6.45;100.00;102120.03;5051270;28;20049;-84
2022/01/22 06:51:15;;;;;;;31.75;16.90;;;5.20;99.90;;;6.44;100.00;102129.47;5051658;28;20590;-84
2022/01/22 06:53:41;;;;;;;31.63;16.60;;;5.20;99.90;;;6.48;100.00;102121.38;5034113;28;20032;-84
2022/01/22 06:56:09;;;;;;;31.77;16.08;;;5.20;99.90;;;6.47;100.00;102128.88;5033748;28;20033;-83
2022/01/22 06:58:49;;;;;;;24.05;14.60;;;5.20;99.90;;;6.46;100.00;102129.97;5033869;28;20025;-84
2022/01/22 07:01:16;;;;;;;27.95;15.20;;;5.20;99.90;;;6.53;100.00;102132.41;5035527;28;20025;-83
2022/01/22 07:03:46;;;;;;;33.22;15.30;;;5.20;99.90;;;6.47;100.00;102130.81;5051606;28;20036;-84
2022/01/22 07:06:12;;;;;;;28.38;14.88;;;5.20;99.90;;;6.47;100.00;102131.66;5051699;28;20033;-82
2022/01/22 07:08:41;;;;;;;24.35;13.98;;;5.20;99.90;;;6.50;100.00;102144.09;5050768;28;20034;-83
2022/01/22 07:11:07;;;;;;;24.58;13.15;;;5.20;99.90;;;6.50;100.00;102142.16;5034462;28;20066;-82
2022/01/22 07:13:34;;;;;;;26.30;14.20;;;5.20;99.90;;;6.52;100.00;102145.44;5052755;28;20029;-82
2022/01/22 07:16:05;;;;;;;27.48;14.15;;;5.20;99.90;;;6.48;100.00;102149.97;5051758;28;20039;-83
2022/01/22 07:18:32;;;;;;;22.27;13.55;;;5.20;99.90;;;6.49;100.00;102145.22;5051122;28;20152;-85
2022/01/22 07:20:58;;;;;;;27.33;14.23;;;5.20;99.90;;;6.50;100.00;102156.03;5053235;28;20040;-84
2022/01/22 07:26:07;;;;;;;21.98;12.13;;;5.20;99.90;;;6.53;100.00;102160.16;5047097;28;20108;-84
2022/01/22 07:28:39;;;;;;;21.38;11.85;;;5.20;99.90;;;6.57;100.00;102164.00;5059547;28;20036;-84
2022/01/22 07:31:10;;;;;;;26.27;12.35;;;5.20;99.90;;;6.56;100.00;102163.19;5059481;28;20035;-84
2022/01/22 07:33:37;;;;;;;20.63;11.82;;;5.20;99.90;;;6.57;100.00;102164.84;5043441;28;20087;-83
2022/01/22 07:36:07;;;;;;;18.83;11.02;;;5.20;99.90;;;6.59;100.00;102161.75;5061333;28;20033;-85
2022/01/22 07:38:38;;;;;;;21.10;11.77;;;5.30;99.90;;;6.58;100.00;102166.47;5060733;28;20059;-83
2022/01/22 07:41:06;;;;;;;20.73;11.10;;;5.30;99.90;;;6.55;100.00;102172.63;5060077;28;20079;-83
2022/01/22 07:43:32;;;;;;;26.73;12.55;;;5.30;99.90;;;6.60;100.00;102166.19;5061160;28;20055;-81
2022/01/22 07:46:08;;;;;;;25.63;12.27;;;5.30;99.90;;;6.58;100.00;102174.81;5044462;28;20029;-85
2022/01/22 07:48:33;;;;;;;22.58;10.73;;;5.40;99.90;;;6.53;100.00;102168.50;5060433;28;20105;-85
2022/01/22 07:51:02;;;;;;;20.15;11.40;;;5.40;99.90;;;6.62;100.00;102178.66;5063053;28;20068;-84
2022/01/22 07:53:28;;;;;;;18.77;10.50;;;5.30;99.90;;;6.61;100.00;102162.31;5060602;28;20029;-83
2022/01/22 07:55:54;;;;;;;22.25;10.80;;;5.30;99.90;;;6.61;100.00;102173.41;5061046;28;20135;-85
2022/01/22 07:58:23;;;;;;;23.92;11.18;;;5.40;99.90;;;6.63;100.00;102190.59;5062000;28;20376;-86
2022/01/22 08:00:52;;;;;;;17.25;9.90;;;5.40;99.90;;;6.65;100.00;102188.34;5061158;28;20029;-84
2022/01/22 08:03:18;;;;;;;19.38;9.65;;;5.40;99.90;;;6.61;100.00;102179.81;5061823;28;20029;-85
2022/01/22 08:05:45;;;;;;;19.17;9.50;;;5.40;99.90;;;6.72;100.00;102186.03;5043167;28;20078;-85
2022/01/22 08:08:11;;;;;;;21.83;10.98;;;5.40;99.90;;;6.70;100.00;102182.75;5043906;28;20443;-83
2022/01/22 08:10:37;;;;;;;17.02;9.75;;;5.40;99.90;;;6.63;100.00;102174.78;5043369;28;20056;-83
2022/01/22 08:13:03;;;;;;;18.40;9.20;;;5.40;99.90;;;6.67;100.00;102186.13;5059361;28;20056;-84
2022/01/22 08:15:30;;;;;;;17.67;8.57;;;5.50;99.90;;;6.68;100.00;102185.81;5058659;28;20033;-85
2022/01/22 08:18:00;;;;;;;16.27;8.52;;;5.40;99.90;;;6.67;100.00;102173.06;5043780;28;20091;-83
2022/01/22 08:20:34;;;;;;;13.05;8.15;;;5.40;99.90;;;6.65;100.00;102178.06;5059968;28;20021;-84
2022/01/22 08:23:00;;;;;;;16.23;9.77;;;5.40;99.90;;;6.70;100.00;102182.75;5042298;28;20126;-86
2022/01/22 08:25:31;;;;;;;18.98;8.30;;;5.40;99.90;;;6.62;100.00;102181.44;5039438;28;20021;-83
2022/01/22 08:30:36;;;;;;;15.68;8.77;;;5.50;99.90;;;6.72;100.00;102174.94;5040178;28;20029;-84
2022/01/22 08:35:54;;;;;;;17.35;7.35;;;5.50;99.90;;;6.72;100.00;102175.78;5040127;28;20030;-82
2022/01/22 08:38:27;;;;;;;17.05;7.78;;;5.50;99.90;;;6.80;100.00;102177.09;5039509;28;20034;-82
2022/01/22 08:40:55;;;;;;;17.92;7.88;;;5.50;99.90;;;6.75;100.00;102177.97;5040702;28;20029;-84
2022/01/22 08:43:22;;;;;;;17.38;7.85;;;5.60;99.90;;;6.83;100.00;102180.09;5039425;28;20026;-84
2022/01/22 08:45:50;;;;;;;14.48;8.20;;;5.60;99.90;;;6.84;100.00;102181.72;5039972;28;20420;-84
2022/01/22 08:48:19;;;;;;;15.90;8.93;;;5.60;99.90;;;6.92;100.00;102187.75;5039078;28;20037;-86
2022/01/22 08:50:45;;;;;;;15.23;8.80;;;5.60;99.90;;;6.95;100.00;102187.16;5055079;28;20036;-85
2022/01/22 08:53:12;;;;;;;14.35;8.73;;;5.70;99.90;;;7.04;100.00;102196.50;5040386;28;20022;-82
2022/01/22 08:55:38;;;;;;;20.23;11.07;;;5.70;99.90;;;7.06;100.00;102191.47;5038434;28;20504;-84
2022/01/22 08:58:05;;;;;;;24.35;12.52;;;5.70;99.90;;;7.11;100.00;102196.97;5038731;28;20041;-82
2022/01/22 09:00:32;;;;;;;23.13;13.43;;;5.70;99.90;;;7.15;100.00;102196.09;5053656;28;20032;-80
2022/01/22 09:02:59;;;;;;;24.80;14.23;;;5.70;99.90;;;7.08;100.00;102194.78;5053689;28;20083;-79
2022/01/22 09:05:31;;;;;;;25.10;13.65;;;5.80;99.90;;;7.07;100.00;102193.13;5037998;28;20032;-80
2022/01/22 09:07:58;;;;;;;34.55;16.73;;;5.70;99.90;;;6.94;100.00;102191.06;5038222;28;20025;-80
2022/01/22 09:10:24;;;;;;;32.55;16.80;;;5.70;99.90;;;7.10;100.00;102186.97;5038027;28;20503;-84
2022/01/22 09:12:50;;;;;;;32.75;17.30;;;5.80;99.90;;;7.10;100.00;102196.13;5054508;28;20038;-86
2022/01/22 09:15:17;;;;;;;32.97;17.77;;;5.80;99.90;;;7.15;100.00;102195.25;5055097;28;20461;-83
2022/01/22 09:17:48;;;;;;;34.88;19.23;;;5.80;99.90;;;7.06;100.00;102191.47;5039587;28;20112;-85
2022/01/22 09:20:42;;;;;;;35.97;21.15;;;5.80;99.90;;;7.16;100.00;102199.69;5039462;28;20103;-81
2022/01/22 09:23:12;;;;;;;38.92;18.95;;;5.80;99.90;;;7.27;100.00;102192.84;5038379;28;20519;-80
2022/01/22 09:25:42;;;;;;;38.25;20.50;;;5.90;99.90;;;7.32;100.00;102203.94;5054690;28;20075;-82
2022/01/22 09:28:13;;;;;;;40.53;21.13;;;5.90;99.90;;;7.31;100.00;102205.88;5054705;28;20029;-84
2022/01/22 09:30:42;;;;;;;36.90;20.50;;;5.90;99.90;;;7.32;100.00;102204.72;5054274;28;20029;-82
2022/01/22 09:33:11;;;;;;;45.53;23.00;;;6.00;99.90;;;7.38;100.00;102208.28;5054356;28;20068;-84
2022/01/22 09:35:40;;;;;;;37.78;21.10;;;6.00;99.90;;;7.40;100.00;102217.16;5039929;28;20026;-84
2022/01/22 09:38:07;;;;;;;39.55;20.52;;;6.00;99.90;;;7.34;100.00;102213.63;5058272;28;20085;-84
2022/01/22 09:40:35;;;;;;;41.45;22.13;;;6.00;99.90;;;7.35;100.00;102217.22;5043893;28;20100;-79
2022/01/22 09:43:01;;;;;;;36.40;21.08;;;6.00;99.90;;;7.40;100.00;102228.25;5041158;28;20561;-83
2022/01/22 09:45:31;;;;;;;36.13;19.92;;;6.00;99.90;;;7.38;100.00;102219.41;5039726;28;20029;-84
2022/01/22 09:48:00;;;;;;;44.17;22.35;;;6.00;99.90;;;7.45;100.00;102224.59;5037935;28;20083;-84
2022/01/22 09:50:31;;;;;;;39.97;21.83;;;6.00;99.90;;;7.51;100.00;102232.56;5053710;28;20025;-83
2022/01/22 09:52:58;;;;;;;34.53;19.25;;;6.10;99.90;;;7.48;100.00;102233.13;5053656;28;20097;-81
2022/01/22 09:55:25;;;;;;;37.90;21.45;;;6.10;99.90;;;7.49;100.00;102245.09;5052992;28;20068;-80
2022/01/22 09:57:54;;;;;;;32.45;20.27;;;6.10;99.90;;;7.52;100.00;102244.50;5050559;28;20036;-81
2022/01/22 10:00:23;;;;;;;32.85;20.65;;;6.10;99.90;;;7.42;100.00;102240.72;5062769;28;20139;-80
2022/01/22 10:02:58;;;;;;;31.75;18.58;;;6.10;99.90;;;7.44;100.00;102232.09;5055515;28;20028;-81
2022/01/22 10:05:39;;;;;;;35.28;16.35;;;6.00;99.90;;;7.43;100.00;102231.28;5055104;28;20053;-80
2022/01/22 10:08:34;;;;;;;31.17;17.40;;;6.00;99.90;;;7.50;100.00;102244.81;5042243;28;20029;-82
2022/01/22 10:11:02;;;;;;;28.67;16.33;;;6.10;99.90;;;7.37;100.00;102229.69;5037916;28;20035;-84
2022/01/22 10:13:53;;;;;;;28.30;16.95;;;6.00;99.90;;;7.40;100.00;102233.81;5053257;28;20057;-81
2022/01/22 10:16:31;;;;;;;26.13;17.20;;;6.00;99.90;;;7.36;100.00;102241.94;5037612;28;20088;-82
2022/01/22 10:19:21;;;;;;;30.15;16.98;;;6.00;99.90;;;7.40;100.00;102236.59;5038885;28;20049;-80
2022/01/22 10:21:59;;;;;;;26.00;16.20;;;6.00;99.90;;;7.35;100.00;102242.25;5038192;28;20083;-81
2022/01/22 10:24:36;;;;;;;25.88;15.77;;;6.00;99.90;;;7.20;100.00;102237.69;5037017;28;20033;-81
2022/01/22 10:30:07;;;;;;;28.80;15.77;;;6.00;99.90;;;7.27;100.00;102245.66;5037355;28;20550;-78
2022/01/22 10:33:04;;;;;;;28.25;17.15;;;6.00;99.90;;;7.27;100.00;102237.31;5036889;28;20021;-81
2022/01/22 10:35:34;;;;;;;23.65;14.48;;;6.00;99.90;;;7.31;100.00;102244.78;5053008;28;20037;-83
2022/01/22 10:38:04;;;;;;;25.80;15.10;;;6.00;99.90;;;7.32;100.00;102240.06;5037217;28;20132;-83
2022/01/22 10:40:38;;;;;;;22.60;13.85;;;6.00;99.90;;;7.38;100.00;102245.22;5053027;28;20089;-82
2022/01/22 10:43:30;;;;;;;25.52;15.23;;;6.10;99.90;;;7.43;100.00;102241.56;5053204;28;20025;-80
2022/01/22 10:46:20;;;;;;;21.27;13.23;;;6.10;99.90;;;7.36;100.00;102243.88;5036977;28;20109;-80
2022/01/22 10:49:25;;;;;;;23.08;13.20;;;6.10;99.90;;;7.46;100.00;102242.91;5051959;28;20100;-79
2022/01/22 10:52:00;;;;;;;17.63;11.07;;;6.10;99.90;;;7.43;100.00;102239.63;5048859;28;20535;-80
2022/01/22 10:54:33;;;;;;;21.52;12.38;;;6.10;99.90;;;7.58;100.00;102252.47;5052713;28;20033;-80
2022/01/22 10:57:18;;;;;;;20.23;11.55;;;6.20;99.90;;;7.70;100.00;102255.66;5052451;28;20025;-81
2022/01/22 10:59:58;;;;;;;22.70;12.75;;;6.30;99.90;;;7.71;100.00;102256.47;5035588;28;20048;-80
2022/01/22 11:02:40;;;;;;;21.00;12.95;;;6.30;99.90;;;7.67;100.00;102256.25;5056237;28;20025;-81
2022/01/22 11:05:07;;;;;;;22.17;13.80;;;6.40;99.90;;;7.66;100.00;102250.97;5038463;28;20025;-79
2022/01/22 11:07:36;;;;;;;23.95;14.98;;;6.40;99.90;;;7.75;100.00;102246.38;5038622;28;20025;-81
2022/01/22 11:10:07;;;;;;;21.23;13.90;;;6.40;99.90;;;7.74;100.00;102245.56;5039052;28;20029;-80
2022/01/22 11:12:32;;;;;;;21.42;13.32;;;6.40;99.90;;;7.72;100.00;102242.25;5057878;28;20495;-81
2022/01/22 11:15:06;;;;;;;20.45;13.15;;;6.40;99.90;;;7.84;100.00;102245.41;5041651;28;20068;-81
2022/01/22 11:17:32;;;;;;;21.58;12.30;;;6.50;99.90;;;7.91;100.00;102250.59;5057334;28;20396;-81
2022/01/22 11:20:01;;;;;;;19.10;12.13;;;6.50;99.90;;;7.91;100.00;102243.09;5057330;28;20029;-82
2022/01/22 11:22:31;;;;;;;18.90;12.35;;;6.60;99.90;;;7.92;100.00;102244.75;5057467;28;20021;-81
2022/01/22 11:24:59;;;;;;;19.80;12.52;;;6.60;99.90;;;8.07;100.00;102243.66;5041810;28;20022;-81
2022/01/22 11:27:25;;;;;;;22.73;13.38;;;6.60;99.90;;;8.10;100.00;102253.38;5044750;28;20388;-80
2022/01/22 11:30:10;;;;;;;21.70;13.02;;;6.70;99.90;;;8.16;100.00;102247.41;5060112;28;20036;-82
2022/01/22 11:32:43;;;;;;;22.50;14.98;;;6.70;99.90;;;8.06;100.00;102249.56;5060252;28;20028;-79
2022/01/22 11:35:21;;;;;;;22.90;14.77;;;6.70;99.90;;;7.77;100.00;102244.97;5042073;28;20047;-78
2022/01/22 11:37:56;;;;;;;22.52;14.85;;;6.60;99.90;;;7.81;100.00;102259.09;5060140;28;20020;-77
2022/01/22 11:40:27;;;;;;;26.00;15.48;;;6.50;99.90;;;7.73;100.00;102245.88;5059539;28;20041;-78
2022/01/22 11:43:19;;;;;;;24.95;16.27;;;6.40;99.90;;;7.82;100.00;102250.47;5061002;28;20040;-80
2022/01/22 11:45:54;;;;;;;26.20;14.90;;;6.50;99.90;;;7.77;100.00;102256.09;5062378;28;20028;-80
2022/01/22 11:48:30;;;;;;;25.65;15.32;;;6.50;99.90;;;7.81;100.00;102251.59;5068296;28;20025;-79
2022/01/22 11:51:26;;;;;;;26.27;13.93;;;6.50;99.90;;;7.80;100.00;102246.34;5069821;28;20025;-79
2022/01/22 11:54:01;;;;;;;22.75;12.65;;;6.50;99.90;;;7.89;100.00;102241.75;5059406;28;20021;-77
2022/01/22 11:56:54;;;;;;;17.95;11.38;;;6.50;99.90;;;7.92;100.00;102246.69;5045511;28;20017;-82
2022/01/22 11:59:35;;;;;;;16.50;10.20;;;6.60;99.90;;;7.95;100.00;102251.66;5068814;28;20033;-82
2022/01/22 12:02:05;;;;;;;17.27;9.65;;;6.60;99.90;;;8.04;100.00;102244.28;5060915;28;20017;-86
2022/01/22 12:04:50;;;;;;;17.30;10.68;;;6.70;99.90;;;8.16;100.00;102241.00;5048504;28;20025;-84
2022/01/22 12:07:22;;;;;;;16.00;9.88;;;6.80;99.90;;;8.10;100.00;102240.28;5062527;28;20021;-81
2022/01/22 12:09:53;;;;;;;14.00;8.57;;;6.70;99.90;;;8.13;100.00;102222.97;5059026;28;20029;-83